Time;durP1;ratioP1;P1;durP2;ratioP2;P2;SDS_P1;SDS_P2;PMS_P1;PMS_P2;Temp;Humidity;BMP_temperature;BMP_pressure;BME280_temperature;BME280_humidity;BME280_pressure;Samples;Min_cycle;Max_cycle;Signal;HPM_P1;HPM_P2
2022/06/11 00:01:36;;;;;;;12.35;8.10;;;19.50;87.40;;;;;;5052004;28;20515;-73
2022/06/11 00:04:05;;;;;;;13.63;8.80;;;19.40;87.20;;;;;;5050846;28;20028;-74
2022/06/11 00:06:35;;;;;;;14.57;7.38;;;19.40;87.10;;;;;;5051384;28;20029;-73
2022/06/11 00:09:01;;;;;;;18.42;6.97;;;19.40;86.80;;;;;;5051950;28;20075;-73
2022/06/11 00:11:27;;;;;;;13.65;7.70;;;19.30;86.80;;;;;;5050996;28;20037;-73
2022/06/11 00:13:54;;;;;;;11.18;6.45;;;19.30;86.50;;;;;;5051044;28;20021;-73
2022/06/11 00:16:23;;;;;;;7.88;4.18;;;19.20;86.20;;;;;;5051000;28;20025;-73
2022/06/11 00:18:51;;;;;;;9.70;5.60;;;19.20;85.80;;;;;;5047358;28;20068;-74
2022/06/11 00:21:17;;;;;;;6.57;4.65;;;19.20;85.70;;;;;;5051618;28;20481;-73
2022/06/11 00:23:46;;;;;;;9.20;5.38;;;19.20;85.50;;;;;;5051274;28;20048;-73
2022/06/11 00:26:11;;;;;;;6.68;4.00;;;19.20;85.50;;;;;;5051045;28;20116;-72
2022/06/11 00:28:38;;;;;;;7.50;3.83;;;19.10;85.40;;;;;;5051215;28;20092;-73
2022/06/11 00:31:05;;;;;;;6.20;3.35;;;19.10;85.20;;;;;;5050015;28;20012;-72
2022/06/11 00:33:32;;;;;;;7.68;3.53;;;19.10;85.30;;;;;;5050021;28;20156;-73
2022/06/11 00:35:59;;;;;;;7.63;3.90;;;19.10;85.40;;;;;;5050774;28;20049;-71
2022/06/11 00:38:25;;;;;;;7.85;3.45;;;19.00;85.30;;;;;;5050420;28;20106;-72
2022/06/11 00:40:53;;;;;;;8.10;3.90;;;19.00;85.30;;;;;;5050406;28;20136;-73
2022/06/11 00:43:25;;;;;;;7.78;3.83;;;19.00;85.40;;;;;;5048874;28;20024;-73
2022/06/11 00:45:56;;;;;;;7.47;4.00;;;19.00;85.40;;;;;;5051062;28;20039;-73
2022/06/11 00:48:48;;;;;;;7.22;3.70;;;19.00;85.60;;;;;;5047410;28;20678;-73
2022/06/11 00:51:20;;;;;;;9.02;4.47;;;19.00;85.60;;;;;;5047226;28;20044;-73
2022/06/11 00:53:54;;;;;;;7.97;4.15;;;18.90;85.60;;;;;;5049739;28;20025;-73
2022/06/11 00:56:32;;;;;;;9.90;5.47;;;18.90;85.70;;;;;;5050497;28;20040;-72
2022/06/11 00:59:00;;;;;;;9.35;5.65;;;18.80;86.10;;;;;;5049987;28;20495;-72
2022/06/11 01:01:28;;;;;;;11.38;4.90;;;18.70;86.60;;;;;;5050726;28;20562;-72
2022/06/11 01:03:56;;;;;;;9.07;6.07;;;18.70;86.80;;;;;;5048590;28;20017;-73
2022/06/11 01:06:39;;;;;;;12.68;7.00;;;18.70;87.10;;;;;;5050185;28;20032;-72
2022/06/11 01:09:16;;;;;;;10.80;7.03;;;18.60;87.40;;;;;;5049858;28;20368;-72
2022/06/11 01:12:05;;;;;;;12.48;7.50;;;18.60;87.50;;;;;;5050266;28;20022;-73
2022/06/11 01:14:30;;;;;;;11.23;7.22;;;18.60;87.80;;;;;;5048855;28;20021;-74
2022/06/11 01:17:06;;;;;;;15.20;8.32;;;18.50;88.00;;;;;;5050072;28;20397;-73
2022/06/11 01:19:31;;;;;;;13.60;7.50;;;18.40;88.10;;;;;;5048568;28;20031;-72
2022/06/11 01:22:30;;;;;;;12.77;7.68;;;18.50;88.40;;;;;;5050380;28;20025;-73
2022/06/11 01:25:06;;;;;;;12.88;7.65;;;18.30;88.80;;;;;;5050064;28;20053;-73
2022/06/11 01:27:53;;;;;;;10.75;7.70;;;18.30;88.80;;;;;;5050080;28;20112;-73
2022/06/11 01:30:29;;;;;;;10.10;7.20;;;18.30;89.10;;;;;;5049700;28;20033;-72
2022/06/11 01:33:24;;;;;;;13.50;8.00;;;18.20;89.00;;;;;;5049708;28;20031;-72
2022/06/11 01:36:08;;;;;;;10.95;7.68;;;18.20;89.10;;;;;;5043363;28;20041;-73
2022/06/11 01:38:47;;;;;;;13.60;8.50;;;18.10;89.20;;;;;;5049774;28;20024;-73
2022/06/11 01:41:31;;;;;;;11.30;7.65;;;18.20;89.40;;;;;;5049681;28;20391;-73
2022/06/11 01:44:01;;;;;;;11.13;7.25;;;18.10;89.30;;;;;;5050133;28;20074;-73
2022/06/11 01:46:38;;;;;;;11.93;6.63;;;18.10;89.30;;;;;;5048497;28;20499;-73
2022/06/11 01:49:26;;;;;;;15.15;7.93;;;18.10;89.20;;;;;;5041198;28;20028;-73
2022/06/11 01:52:16;;;;;;;9.45;6.57;;;18.10;89.50;;;;;;5048793;28;20028;-73
2022/06/11 01:54:53;;;;;;;10.32;6.68;;;18.00;89.50;;;;;;5049486;28;20099;-73
2022/06/11 01:57:53;;;;;;;9.15;6.35;;;18.00;89.50;;;;;;5049900;28;20510;-72
2022/06/11 02:00:29;;;;;;;11.50;6.95;;;18.00;89.80;;;;;;5048884;28;20650;-72
2022/06/11 02:03:00;;;;;;;16.42;8.15;;;17.90;89.90;;;;;;5049541;28;20071;-72
2022/06/11 02:05:57;;;;;;;11.05;7.38;;;17.90;90.00;;;;;;5034528;28;20098;-73
2022/06/11 02:08:45;;;;;;;11.43;7.68;;;17.90;90.00;;;;;;5049112;28;20116;-73
2022/06/11 02:11:26;;;;;;;11.10;7.47;;;17.90;90.00;;;;;;5049233;28;20021;-74
2022/06/11 02:14:18;;;;;;;11.32;7.68;;;17.80;90.00;;;;;;5048376;28;20025;-73
2022/06/11 02:17:02;;;;;;;12.73;7.20;;;17.80;90.10;;;;;;5056025;28;20121;-73
2022/06/11 02:19:33;;;;;;;8.40;6.60;;;17.80;90.10;;;;;;5050959;28;20158;-71
2022/06/11 02:22:05;;;;;;;11.32;7.03;;;17.80;90.40;;;;;;5048765;28;20025;-73
2022/06/11 02:24:45;;;;;;;11.23;7.28;;;17.70;90.20;;;;;;5049315;28;20021;-72
2022/06/11 02:27:12;;;;;;;;;;;17.70;90.30;;;;;;5050068;28;20036;-73
2022/06/11 02:29:39;;;;;;;12.75;9.25;;;17.70;90.30;;;;;;5048964;28;19905;-72
2022/06/11 02:32:13;;;;;;;11.23;8.02;;;17.70;90.40;;;;;;5047867;28;20017;-72
2022/06/11 02:34:44;;;;;;;11.45;8.30;;;17.60;90.60;;;;;;5035919;28;20416;-73
2022/06/11 02:37:25;;;;;;;14.13;7.65;;;17.60;90.60;;;;;;5039134;28;20143;-72
2022/06/11 02:39:53;;;;;;;12.77;8.93;;;17.50;90.60;;;;;;5048417;28;20021;-72
2022/06/11 02:42:21;;;;;;;11.38;8.35;;;17.50;90.70;;;;;;5048802;28;20472;-72
2022/06/11 02:44:47;;;;;;;12.43;8.05;;;17.50;90.70;;;;;;5048577;28;20033;-73
2022/06/11 02:47:14;;;;;;;11.00;7.15;;;17.50;90.70;;;;;;5048191;28;20020;-73
2022/06/11 02:49:40;;;;;;;8.10;5.82;;;17.40;90.70;;;;;;5047970;28;20363;-73
2022/06/11 02:52:25;;;;;;;11.55;6.78;;;17.40;90.60;;;;;;5048230;28;20117;-73
2022/06/11 02:54:52;;;;;;;9.52;7.40;;;17.40;90.60;;;;;;5046905;28;20138;-72
2022/06/11 02:57:25;;;;;;;8.30;6.00;;;17.40;90.70;;;;;;5048166;28;20029;-71
2022/06/11 02:59:52;;;;;;;10.82;6.82;;;17.40;90.70;;;;;;5048683;28;20024;-72
2022/06/11 03:02:20;;;;;;;12.85;7.57;;;17.40;90.70;;;;;;5048446;28;20025;-73
2022/06/11 03:04:46;;;;;;;12.43;7.72;;;17.40;91.00;;;;;;5046623;28;20029;-72
2022/06/11 03:07:12;;;;;;;10.35;6.90;;;17.40;90.70;;;;;;5047816;28;20043;-73
2022/06/11 03:09:40;;;;;;;13.02;7.45;;;17.40;90.60;;;;;;5048501;28;20089;-74
2022/06/11 03:12:08;;;;;;;9.32;6.90;;;17.40;90.60;;;;;;5048885;28;20052;-71
2022/06/11 03:14:35;;;;;;;10.60;7.00;;;17.40;90.60;;;;;;5044367;28;20030;-73
2022/06/11 03:17:01;;;;;;;10.65;8.05;;;17.40;90.60;;;;;;5040221;28;20028;-73
2022/06/11 03:19:27;;;;;;;11.45;8.05;;;17.40;90.60;;;;;;5047680;28;20079;-72
2022/06/11 03:21:55;;;;;;;17.02;8.98;;;17.40;90.60;;;;;;5048381;28;20037;-73
2022/06/11 03:24:22;;;;;;;14.02;8.23;;;17.30;90.70;;;;;;5048160;28;20090;-73
2022/06/11 03:26:48;;;;;;;11.45;7.97;;;17.30;90.70;;;;;;5047733;28;20103;-73
2022/06/11 03:29:15;;;;;;;12.57;8.85;;;17.30;90.90;;;;;;5048060;28;20022;-73
2022/06/11 03:31:42;;;;;;;12.05;8.27;;;17.20;91.00;;;;;;5038634;28;20029;-72
2022/06/11 03:34:08;;;;;;;13.35;9.02;;;17.20;91.10;;;;;;5039856;28;20512;-72
2022/06/11 03:36:34;;;;;;;13.68;8.70;;;17.20;91.20;;;;;;5046294;28;20140;-73
2022/06/11 03:39:00;;;;;;;13.95;9.20;;;17.10;91.40;;;;;;5046821;28;20032;-73
2022/06/11 03:41:25;;;;;;;11.73;8.68;;;17.00;91.50;;;;;;5048044;28;20016;-73
2022/06/11 03:43:51;;;;;;;11.90;8.35;;;17.00;91.50;;;;;;5047264;28;20452;-73
2022/06/11 03:46:18;;;;;;;11.73;8.23;;;17.00;91.70;;;;;;5047119;28;20028;-72
2022/06/11 03:48:44;;;;;;;12.43;8.25;;;16.90;91.80;;;;;;5047567;28;20104;-74
2022/06/11 03:51:11;;;;;;;12.40;8.98;;;16.90;91.70;;;;;;5048169;28;20522;-72
2022/06/11 03:53:38;;;;;;;9.82;6.93;;;16.90;91.80;;;;;;5048355;28;20028;-72
2022/06/11 03:56:07;;;;;;;12.50;8.52;;;16.90;91.80;;;;;;5043063;28;20670;-73
2022/06/11 03:58:35;;;;;;;13.43;8.02;;;16.90;91.80;;;;;;5046670;28;20102;-73
2022/06/11 04:01:16;;;;;;;11.48;7.68;;;16.90;91.70;;;;;;5045192;28;20021;-73
2022/06/11 04:03:56;;;;;;;13.40;8.55;;;16.90;91.70;;;;;;5047819;28;20048;-73
2022/06/11 04:06:30;;;;;;;11.65;8.32;;;16.90;91.60;;;;;;5051622;28;20053;-73
2022/06/11 04:08:56;;;;;;;12.40;7.65;;;16.90;91.60;;;;;;5051696;28;20068;-73
2022/06/11 04:11:22;;;;;;;14.95;6.63;;;16.90;91.60;;;;;;5051545;28;20040;-73
2022/06/11 04:13:49;;;;;;;11.23;7.05;;;16.90;91.60;;;;;;5051454;28;20084;-72
2022/06/11 04:16:31;;;;;;;9.43;6.57;;;17.00;91.50;;;;;;5049662;28;20071;-73
2022/06/11 04:19:00;;;;;;;13.52;6.05;;;17.00;91.40;;;;;;5051411;28;20395;-72
2022/06/11 04:21:28;;;;;;;14.15;7.32;;;17.00;91.40;;;;;;5051253;28;20025;-73
2022/06/11 04:23:56;;;;;;;11.60;6.03;;;17.00;91.30;;;;;;5051364;28;20021;-74
2022/06/11 04:26:32;;;;;;;13.00;5.47;;;17.00;91.00;;;;;;5049346;28;20079;-72
2022/06/11 04:29:00;;;;;;;9.35;4.20;;;17.00;90.80;;;;;;5031544;28;20115;-72
2022/06/11 04:31:27;;;;;;;8.40;3.33;;;17.00;90.80;;;;;;5045046;28;20028;-73
2022/06/11 04:33:54;;;;;;;14.88;5.13;;;16.90;90.10;;;;;;5050746;28;20519;-72
2022/06/11 04:36:22;;;;;;;10.02;3.28;;;16.90;89.50;;;;;;5051440;28;20052;-73
2022/06/11 04:38:48;;;;;;;13.80;4.22;;;16.90;89.00;;;;;;5051314;28;20079;-72
2022/06/11 04:41:13;;;;;;;14.27;4.60;;;17.00;89.10;;;;;;5047011;28;20487;-73
2022/06/11 04:43:41;;;;;;;11.40;3.50;;;17.00;88.30;;;;;;5056373;28;20459;-72
2022/06/11 04:46:07;;;;;;;9.15;3.90;;;17.00;87.70;;;;;;5051072;28;20021;-73
2022/06/11 04:48:34;;;;;;;12.45;3.53;;;17.10;87.60;;;;;;5049055;28;20534;-72
2022/06/11 04:51:00;;;;;;;13.43;4.28;;;17.10;87.30;;;;;;5050251;28;20025;-72
2022/06/11 04:53:26;;;;;;;12.88;3.97;;;17.10;86.90;;;;;;5050563;28;20467;-72
2022/06/11 04:55:52;;;;;;;14.75;4.47;;;17.20;86.20;;;;;;5050712;28;20032;-72
2022/06/11 04:58:17;;;;;;;13.88;3.28;;;17.20;86.10;;;;;;5050394;28;20427;-74
2022/06/11 05:00:43;;;;;;;11.88;3.08;;;17.30;85.70;;;;;;5050457;28;20048;-72
2022/06/11 05:03:09;;;;;;;10.60;3.42;;;17.30;85.90;;;;;;5049900;28;20090;-73
2022/06/11 05:05:35;;;;;;;12.20;3.05;;;17.30;85.20;;;;;;5050241;28;20020;-71
2022/06/11 05:08:01;;;;;;;12.48;3.28;;;17.40;84.70;;;;;;5050597;28;20033;-73
2022/06/11 05:10:28;;;;;;;14.18;3.90;;;17.40;85.00;;;;;;5042756;28;20546;-74
2022/06/11 05:12:55;;;;;;;12.40;3.30;;;17.50;84.10;;;;;;5050210;28;20025;-73
2022/06/11 05:15:21;;;;;;;13.88;3.90;;;17.50;83.70;;;;;;5050186;28;20383;-72
2022/06/11 05:17:47;;;;;;;11.50;3.20;;;17.60;83.70;;;;;;5049945;28;20763;-73
2022/06/11 05:20:15;;;;;;;11.43;2.75;;;17.60;83.40;;;;;;5049278;28;20487;-74
2022/06/11 05:22:41;;;;;;;11.48;2.78;;;17.60;83.10;;;;;;5049857;28;20021;-73
2022/06/11 05:25:10;;;;;;;10.60;2.92;;;17.60;82.70;;;;;;5050304;28;20036;-73
2022/06/11 05:27:38;;;;;;;17.10;4.25;;;17.60;82.70;;;;;;5050004;28;20041;-74
2022/06/11 05:30:09;;;;;;;14.07;3.70;;;17.70;82.30;;;;;;5050384;28;20031;-74
2022/06/11 05:32:37;;;;;;;10.25;2.50;;;17.60;82.00;;;;;;5048286;28;20021;-73
2022/06/11 05:35:06;;;;;;;12.20;3.60;;;17.70;81.70;;;;;;5045546;28;20128;-73
2022/06/11 05:37:31;;;;;;;16.77;3.47;;;17.60;81.30;;;;;;5049129;28;20037;-74
2022/06/11 05:39:57;;;;;;;18.27;3.70;;;17.70;81.60;;;;;;5048663;28;20017;-73
2022/06/11 05:42:25;;;;;;;21.85;4.07;;;17.80;81.70;;;;;;5049796;28;20116;-73
2022/06/11 05:44:51;;;;;;;13.68;3.53;;;17.90;81.50;;;;;;5049422;28;20028;-74
2022/06/11 05:47:20;;;;;;;10.60;3.10;;;17.90;81.20;;;;;;5048971;28;20039;-72
2022/06/11 05:49:49;;;;;;;15.32;3.35;;;18.00;81.00;;;;;;5048127;28;20033;-73
2022/06/11 05:52:29;;;;;;;16.80;4.90;;;18.10;81.00;;;;;;5049431;28;20028;-72
2022/06/11 05:54:55;;;;;;;15.15;3.20;;;18.20;80.70;;;;;;5048351;28;20033;-72
2022/06/11 05:57:24;;;;;;;13.82;4.25;;;18.30;80.50;;;;;;5049803;28;20388;-74
2022/06/11 05:59:58;;;;;;;20.17;4.88;;;18.40;80.00;;;;;;5049079;28;20029;-74
2022/06/11 06:02:27;;;;;;;14.65;3.97;;;18.50;79.10;;;;;;5050134;28;20027;-73
2022/06/11 06:04:54;;;;;;;15.27;3.70;;;18.50;78.20;;;;;;5048389;28;20113;-74
2022/06/11 06:07:19;;;;;;;17.10;3.92;;;18.50;78.40;;;;;;5046288;28;20021;-75
2022/06/11 06:09:45;;;;;;;19.92;4.10;;;18.50;78.40;;;;;;5046202;28;20546;-73
2022/06/11 06:12:11;;;;;;;21.67;4.43;;;18.50;78.60;;;;;;5038338;28;20487;-74
2022/06/11 06:14:36;;;;;;;16.60;3.83;;;18.50;78.60;;;;;;5046218;28;20021;-75
2022/06/11 06:17:02;;;;;;;19.30;3.60;;;18.50;78.30;;;;;;5049128;28;20036;-74
2022/06/11 06:19:28;;;;;;;11.68;3.28;;;18.60;77.80;;;;;;5046861;28;20492;-73
2022/06/11 06:21:53;;;;;;;16.60;4.05;;;18.70;78.30;;;;;;5040205;28;20887;-74
2022/06/11 06:24:19;;;;;;;15.75;4.05;;;18.70;78.70;;;;;;5045635;28;20098;-75
2022/06/11 06:26:45;;;;;;;14.15;3.97;;;18.80;77.50;;;;;;5038043;28;20120;-73
2022/06/11 06:29:10;;;;;;;17.35;3.90;;;18.80;77.60;;;;;;5041745;28;20021;-73
2022/06/11 06:31:37;;;;;;;19.10;4.25;;;19.00;77.60;;;;;;5041607;28;20013;-75
2022/06/11 06:34:03;;;;;;;18.08;3.78;;;19.10;77.30;;;;;;5039209;28;20552;-73
2022/06/11 06:36:30;;;;;;;19.20;4.90;;;19.20;76.70;;;;;;5040546;28;20146;-73
2022/06/11 06:38:56;;;;;;;23.15;5.15;;;19.20;76.30;;;;;;5038973;28;20255;-74
2022/06/11 06:41:23;;;;;;;21.10;4.45;;;19.30;75.70;;;;;;5042003;28;20013;-74
2022/06/11 06:43:49;;;;;;;16.02;3.75;;;19.30;75.10;;;;;;5037107;28;20092;-74
2022/06/11 06:46:16;;;;;;;19.13;5.03;;;19.30;74.70;;;;;;5042495;28;20417;-74
2022/06/11 06:48:43;;;;;;;17.20;4.68;;;19.40;74.40;;;;;;5034847;28;20022;-74
2022/06/11 06:51:09;;;;;;;13.90;3.20;;;19.50;74.40;;;;;;5041464;28;20033;-74
2022/06/11 06:53:39;;;;;;;17.13;3.60;;;19.60;74.00;;;;;;5041938;28;20527;-74
2022/06/11 06:56:06;;;;;;;19.80;4.28;;;19.70;74.10;;;;;;5041874;28;20021;-75
2022/06/11 06:58:33;;;;;;;15.35;3.67;;;19.80;73.00;;;;;;5043239;28;20068;-74
2022/06/11 07:00:59;;;;;;;17.33;3.55;;;19.70;72.20;;;;;;5047436;28;20029;-74
2022/06/11 07:03:26;;;;;;;16.35;4.38;;;19.80;72.60;;;;;;5049635;28;20019;-73
2022/06/11 07:05:51;;;;;;;17.77;3.58;;;19.80;71.80;;;;;;5052151;28;20025;-73
2022/06/11 07:08:18;;;;;;;15.45;3.33;;;19.90;72.10;;;;;;5056526;28;20051;-74
2022/06/11 07:10:52;;;;;;;17.30;3.50;;;19.90;71.90;;;;;;5048811;28;20025;-73
2022/06/11 07:13:20;;;;;;;13.73;3.55;;;20.10;71.80;;;;;;5040947;28;20018;-73
2022/06/11 07:15:49;;;;;;;14.63;3.83;;;20.20;71.00;;;;;;5032155;28;20105;-73
2022/06/11 07:18:21;;;;;;;20.45;4.75;;;20.20;70.80;;;;;;5033728;28;20041;-73
2022/06/11 07:20:52;;;;;;;13.93;3.20;;;20.30;70.70;;;;;;5037173;28;20028;-74
2022/06/11 07:23:24;;;;;;;15.73;4.05;;;20.50;71.40;;;;;;5044348;28;20031;-73
2022/06/11 07:25:54;;;;;;;12.57;2.58;;;20.70;71.10;;;;;;5048024;28;20120;-73
2022/06/11 07:28:25;;;;;;;16.88;4.40;;;20.90;70.20;;;;;;5041976;28;20457;-72
2022/06/11 07:30:51;;;;;;;13.25;3.30;;;21.00;69.50;;;;;;5044752;28;20103;-72
2022/06/11 07:33:23;;;;;;;17.23;3.88;;;21.20;69.30;;;;;;5045252;28;20108;-72
2022/06/11 07:35:50;;;;;;;14.02;3.15;;;21.30;67.80;;;;;;5045734;28;20136;-72
2022/06/11 07:38:21;;;;;;;10.88;3.08;;;21.40;68.10;;;;;;5047552;28;20025;-73
2022/06/11 07:40:46;;;;;;;17.80;3.33;;;21.50;67.30;;;;;;5042757;28;20033;-72
2022/06/11 07:43:12;;;;;;;15.80;3.60;;;21.60;66.30;;;;;;5044855;28;20083;-74
2022/06/11 07:45:41;;;;;;;8.93;2.30;;;21.60;66.40;;;;;;5041013;28;20028;-73
2022/06/11 07:48:08;;;;;;;13.15;2.80;;;21.70;66.20;;;;;;5043859;28;20036;-74
2022/06/11 07:50:39;;;;;;;13.60;3.88;;;21.80;65.40;;;;;;5041040;28;20023;-73
2022/06/11 07:53:06;;;;;;;15.90;3.58;;;21.90;64.70;;;;;;5041966;28;20456;-74
2022/06/11 07:55:34;;;;;;;16.08;3.10;;;21.80;63.70;;;;;;5036481;28;20503;-73
2022/06/11 07:58:01;;;;;;;15.13;3.53;;;21.90;64.00;;;;;;5041141;28;20032;-74
2022/06/11 08:00:39;;;;;;;12.25;3.38;;;21.80;62.40;;;;;;5044114;28;20262;-73
2022/06/11 08:03:05;;;;;;;13.77;3.47;;;21.80;62.80;;;;;;5044126;28;20111;-71
2022/06/11 08:05:31;;;;;;;10.45;3.28;;;21.90;63.20;;;;;;5041711;28;20549;-73
2022/06/11 08:07:57;;;;;;;9.82;2.53;;;21.80;62.80;;;;;;5042976;28;20200;-73
2022/06/11 08:10:26;;;;;;;15.27;3.45;;;21.90;63.40;;;;;;5039008;28;20530;-71
2022/06/11 08:12:51;;;;;;;10.52;2.63;;;22.00;63.20;;;;;;5038165;28;20115;-71
2022/06/11 08:15:17;;;;;;;12.77;2.92;;;22.10;63.10;;;;;;5050903;28;20024;-71
2022/06/11 08:17:43;;;;;;;10.55;3.10;;;22.20;62.50;;;;;;5047149;28;20044;-72
2022/06/11 08:20:12;;;;;;;12.00;3.03;;;22.30;62.70;;;;;;5050257;28;20103;-71
2022/06/11 08:22:38;;;;;;;13.05;2.80;;;22.40;62.40;;;;;;5051117;28;20021;-71
2022/06/11 08:25:06;;;;;;;10.60;3.05;;;22.50;62.50;;;;;;5050235;28;20131;-70
2022/06/11 08:27:33;;;;;;;6.45;2.15;;;22.60;62.40;;;;;;5050919;28;20106;-71
2022/06/11 08:29:59;;;;;;;13.02;3.88;;;22.80;61.70;;;;;;5050253;28;20021;-72
2022/06/11 08:32:24;;;;;;;12.70;2.97;;;22.90;60.30;;;;;;5050229;28;20511;-72
2022/06/11 08:34:51;;;;;;;10.77;2.47;;;22.90;60.30;;;;;;5050152;28;20048;-72
2022/06/11 08:37:16;;;;;;;9.70;2.25;;;23.00;59.80;;;;;;5049260;28;20043;-72
2022/06/11 08:39:44;;;;;;;10.35;2.13;;;23.00;59.80;;;;;;5043686;28;20020;-72
2022/06/11 08:42:44;;;;;;;13.82;3.00;;;23.10;59.40;;;;;;5039508;28;20056;-72
2022/06/11 08:45:14;;;;;;;14.05;2.90;;;23.10;58.60;;;;;;5030594;28;20072;-72
2022/06/11 08:47:52;;;;;;;10.55;2.65;;;23.10;58.20;;;;;;5033337;28;20017;-72
2022/06/11 08:50:39;;;;;;;10.43;2.45;;;23.10;58.00;;;;;;5045681;28;20083;-71
2022/06/11 08:53:08;;;;;;;9.80;2.13;;;23.10;58.10;;;;;;5047634;28;20045;-71
2022/06/11 08:55:38;;;;;;;10.63;2.40;;;23.20;58.20;;;;;;5043807;28;20029;-71
2022/06/11 08:58:23;;;;;;;9.60;2.05;;;23.40;58.30;;;;;;5035348;28;20113;-71
2022/06/11 09:01:06;;;;;;;13.43;3.33;;;23.60;58.50;;;;;;5040738;28;20026;-72
2022/06/11 09:04:00;;;;;;;8.48;2.50;;;23.70;58.40;;;;;;5034656;28;20136;-72
2022/06/11 09:06:41;;;;;;;14.05;3.13;;;23.80;57.10;;;;;;5008832;28;20535;-72
2022/06/11 09:09:13;;;;;;;12.93;3.83;;;23.80;57.10;;;;;;5033385;28;20893;-72
2022/06/11 09:11:54;;;;;;;12.30;3.28;;;23.80;57.00;;;;;;5050303;28;20032;-72
2022/06/11 09:14:49;;;;;;;13.15;2.65;;;23.70;57.00;;;;;;5050144;28;20090;-71
2022/06/11 09:17:17;;;;;;;8.40;2.35;;;23.80;57.30;;;;;;5031749;28;20422;-73
2022/06/11 09:20:12;;;;;;;10.38;3.30;;;24.00;56.10;;;;;;5039781;28;20129;-72
2022/06/11 09:23:13;;;;;;;10.18;2.38;;;24.10;54.40;;;;;;5041754;28;20502;-71
2022/06/11 09:25:57;;;;;;;14.65;3.25;;;24.10;55.70;;;;;;5040015;28;20024;-70
2022/06/11 09:28:41;;;;;;;11.60;2.63;;;24.30;54.10;;;;;;5049697;28;20072;-71
2022/06/11 09:31:30;;;;;;;15.98;3.15;;;24.10;54.10;;;;;;5046738;28;20092;-72
2022/06/11 09:34:21;;;;;;;9.50;1.80;;;23.80;55.00;;;;;;5020402;28;20042;-71
2022/06/11 09:37:04;;;;;;;11.63;2.50;;;23.60;56.00;;;;;;5053068;28;20049;-72
2022/06/11 09:39:38;;;;;;;11.60;2.22;;;23.60;57.00;;;;;;5030520;28;20446;-71
2022/06/11 09:42:25;;;;;;;14.63;2.88;;;23.60;56.20;;;;;;5046967;28;20083;-71
2022/06/11 09:45:09;;;;;;;12.25;2.95;;;23.70;56.50;;;;;;5049129;28;20029;-71
2022/06/11 09:48:07;;;;;;;9.70;2.63;;;23.80;55.80;;;;;;5049078;28;20082;-71
2022/06/11 09:50:59;;;;;;;11.32;2.50;;;24.00;54.90;;;;;;5049190;28;20017;-71
2022/06/11 09:53:37;;;;;;;13.50;3.28;;;24.10;54.80;;;;;;5030138;28;20033;-71
2022/06/11 09:56:17;;;;;;;11.25;2.28;;;24.40;57.30;;;;;;5050053;28;20029;-70
2022/06/11 09:59:14;;;;;;;8.73;2.63;;;24.60;55.30;;;;;;5039744;28;20087;-71
2022/06/11 10:01:52;;;;;;;12.30;3.08;;;24.70;55.60;;;;;;5048601;28;20112;-70
2022/06/11 10:04:26;;;;;;;10.48;2.63;;;24.90;55.10;;;;;;5049071;28;20033;-71
2022/06/11 10:06:59;;;;;;;11.45;2.75;;;24.90;54.30;;;;;;5047370;28;20028;-71
2022/06/11 10:09:41;;;;;;;14.02;3.17;;;25.00;54.60;;;;;;5049309;28;20056;-70
2022/06/11 10:12:22;;;;;;;8.90;2.33;;;25.20;54.70;;;;;;5049263;28;20128;-70
2022/06/11 10:14:51;;;;;;;11.32;2.55;;;25.20;55.50;;;;;;5049179;28;20332;-71
2022/06/11 10:17:27;;;;;;;10.35;2.80;;;25.20;54.60;;;;;;5048736;28;20052;-71
2022/06/11 10:20:21;;;;;;;7.97;2.00;;;25.40;54.60;;;;;;5047068;28;20045;-71
2022/06/11 10:23:02;;;;;;;9.90;2.40;;;25.40;54.80;;;;;;5048379;28;20135;-71
2022/06/11 10:25:33;;;;;;;10.45;2.95;;;25.40;54.90;;;;;;5038855;28;20048;-71
2022/06/11 10:28:01;;;;;;;10.77;2.85;;;25.50;54.30;;;;;;5043156;28;20024;-71
2022/06/11 10:30:34;;;;;;;8.82;2.40;;;25.50;55.00;;;;;;5045100;28;20365;-70
2022/06/11 10:33:03;;;;;;;14.13;3.38;;;25.50;56.30;;;;;;5047960;28;20033;-71
2022/06/11 10:35:43;;;;;;;9.00;2.47;;;25.50;55.80;;;;;;5048013;28;20415;-71
2022/06/11 10:38:18;;;;;;;12.02;2.17;;;25.40;56.50;;;;;;5047981;28;20037;-71
2022/06/11 10:40:47;;;;;;;8.25;2.00;;;25.20;55.00;;;;;;5043944;28;20035;-71
2022/06/11 10:43:30;;;;;;;11.25;2.75;;;25.30;56.00;;;;;;5048454;28;20020;-71
2022/06/11 10:45:56;;;;;;;11.48;2.90;;;25.60;56.70;;;;;;5048599;28;20013;-72
2022/06/11 10:48:25;;;;;;;9.63;2.40;;;25.90;56.10;;;;;;5047336;28;20029;-71
2022/06/11 10:50:51;;;;;;;9.32;2.25;;;25.80;55.90;;;;;;5048273;28;20369;-71
2022/06/11 10:53:30;;;;;;;6.80;1.70;;;25.60;55.40;;;;;;5047854;28;20032;-71
2022/06/11 10:56:04;;;;;;;9.83;2.97;;;25.60;56.00;;;;;;5046922;28;20116;-71
2022/06/11 10:58:46;;;;;;;12.02;3.80;;;25.80;56.30;;;;;;5047230;28;20560;-71
2022/06/11 11:01:18;;;;;;;11.23;2.97;;;25.90;55.20;;;;;;5048453;28;20057;-71
2022/06/11 11:03:49;;;;;;;12.15;2.53;;;25.90;56.10;;;;;;5046013;28;20127;-70
2022/06/11 11:06:32;;;;;;;11.05;2.60;;;25.90;56.40;;;;;;5046916;28;20021;-72
2022/06/11 11:09:04;;;;;;;14.68;3.25;;;26.20;57.80;;;;;;5047733;28;20124;-73
2022/06/11 11:11:47;;;;;;;11.18;2.55;;;26.40;53.50;;;;;;5046266;28;20105;-72
2022/06/11 11:14:28;;;;;;;12.88;3.47;;;26.50;50.80;;;;;;5047380;28;20541;-72
2022/06/11 11:17:00;;;;;;;11.77;3.00;;;26.40;49.50;;;;;;5047771;28;20071;-72
2022/06/11 11:19:29;;;;;;;17.10;3.15;;;26.50;49.40;;;;;;5046725;28;20035;-73
2022/06/11 11:22:17;;;;;;;12.23;3.25;;;26.40;52.70;;;;;;5047047;28;20098;-72
2022/06/11 11:24:50;;;;;;;14.63;3.05;;;26.40;52.70;;;;;;5047585;28;20410;-73
2022/06/11 11:27:28;;;;;;;14.63;3.70;;;26.20;53.20;;;;;;5046644;28;20192;-73
2022/06/11 11:30:10;;;;;;;19.20;4.80;;;26.30;50.70;;;;;;5044340;28;20052;-72
2022/06/11 11:32:38;;;;;;;11.43;2.75;;;26.20;52.30;;;;;;5032443;28;20034;-74
2022/06/11 11:35:27;;;;;;;9.93;2.45;;;26.20;54.60;;;;;;5038841;28;20037;-72
2022/06/11 11:38:13;;;;;;;11.85;2.65;;;26.10;57.00;;;;;;5045688;28;20072;-72
2022/06/11 11:40:50;;;;;;;15.35;2.95;;;26.20;56.30;;;;;;5041372;28;20028;-72
2022/06/11 11:43:17;;;;;;;15.02;3.17;;;26.40;54.40;;;;;;5046656;28;20029;-73
2022/06/11 11:45:53;;;;;;;12.57;2.70;;;26.40;51.60;;;;;;5047150;28;20053;-73
2022/06/11 11:48:46;;;;;;;15.57;3.40;;;26.30;55.20;;;;;;5046251;28;20021;-71
2022/06/11 11:51:25;;;;;;;13.35;3.33;;;26.20;50.70;;;;;;5045930;28;20025;-71
2022/06/11 11:54:14;;;;;;;14.95;3.17;;;26.20;52.90;;;;;;5030756;28;20070;-71
2022/06/11 11:56:47;;;;;;;10.73;2.97;;;26.20;53.80;;;;;;5047178;28;20123;-72
2022/06/11 11:59:20;;;;;;;15.43;4.05;;;26.30;55.60;;;;;;5034528;28;20033;-72
2022/06/11 12:01:47;;;;;;;13.95;2.95;;;26.30;51.70;;;;;;5047552;28;20039;-72
2022/06/11 12:04:19;;;;;;;13.93;3.28;;;26.50;55.20;;;;;;5047992;28;20029;-72
2022/06/11 12:06:54;;;;;;;11.90;2.42;;;26.70;50.90;;;;;;5047933;28;20029;-73
2022/06/11 12:09:32;;;;;;;13.10;2.85;;;26.70;51.90;;;;;;5028154;28;20044;-72
2022/06/11 12:12:13;;;;;;;15.07;3.22;;;26.80;54.80;;;;;;5044263;28;20025;-72
2022/06/11 12:14:47;;;;;;;8.77;2.30;;;26.80;53.20;;;;;;5046966;28;20033;-71
2022/06/11 12:18:04;;;;;;;14.90;3.40;;;26.70;55.90;;;;;;5046602;28;20036;-73
2022/06/11 12:20:47;;;;;;;16.70;3.17;;;26.60;53.80;;;;;;4991749;28;20049;-71
2022/06/11 12:23:12;;;;;;;10.05;2.47;;;26.60;54.20;;;;;;5045401;28;20025;-72
2022/06/11 12:25:56;;;;;;;7.78;2.00;;;26.30;55.50;;;;;;5048402;28;20051;-73
2022/06/11 12:28:28;;;;;;;15.00;4.00;;;26.30;56.80;;;;;;5048840;28;20434;-73
2022/06/11 12:30:53;;;;;;;9.80;2.55;;;26.20;50.90;;;;;;5050196;28;20049;-73
2022/06/11 12:33:19;;;;;;;12.50;3.22;;;26.30;53.20;;;;;;5050570;28;20063;-74
2022/06/11 12:35:50;;;;;;;8.35;2.20;;;26.40;52.70;;;;;;5050907;28;20353;-74
2022/06/11 12:38:19;;;;;;;17.60;3.83;;;26.50;54.00;;;;;;5048826;28;20036;-74
2022/06/11 12:41:17;;;;;;;11.30;2.42;;;26.40;52.60;;;;;;5047962;28;20095;-74
2022/06/11 12:44:11;;;;;;;9.55;2.72;;;26.60;53.80;;;;;;5045112;28;20056;-73
2022/06/11 12:46:53;;;;;;;8.07;2.45;;;26.70;53.30;;;;;;5050683;28;20052;-73
2022/06/11 12:49:31;;;;;;;10.52;2.83;;;26.80;57.40;;;;;;5042442;28;20029;-74
2022/06/11 12:52:47;;;;;;;11.20;2.83;;;26.70;54.00;;;;;;5051080;28;20052;-72
2022/06/11 12:55:57;;;;;;;15.20;3.75;;;27.00;53.00;;;;;;4991633;28;20113;-72
2022/06/11 12:58:46;;;;;;;16.45;3.22;;;27.10;50.30;;;;;;5045264;28;20049;-72
2022/06/11 13:01:26;;;;;;;12.70;2.53;;;27.10;50.70;;;;;;5029124;28;20030;-73
2022/06/11 13:04:12;;;;;;;11.55;2.97;;;27.00;49.70;;;;;;5041814;28;20030;-73
2022/06/11 13:07:09;;;;;;;14.98;3.45;;;26.80;49.20;;;;;;5048359;28;20079;-73
2022/06/11 13:10:02;;;;;;;17.95;4.38;;;26.60;55.30;;;;;;5046459;28;20069;-73